sensor_id;sensor_type;location;lat;lon;timestamp;temperature;humidity
5792;DHT22;2922;53.482;10.006;2022-09-09T00:01:11;15.00;99.90
5792;DHT22;2922;53.482;10.006;2022-09-09T00:03:57;15.00;99.90
5792;DHT22;2922;53.482;10.006;2022-09-09T00:06:30;15.00;99.90
5792;DHT22;2922;53.482;10.006;2022-09-09T00:14:54;14.90;99.90
5792;DHT22;2922;53.482;10.006;2022-09-09T00:17:36;14.90;99.90
5792;DHT22;2922;53.482;10.006;2022-09-09T00:22:50;14.90;99.90
5792;DHT22;2922;53.482;10.006;2022-09-09T00:25:46;14.90;99.90
5792;DHT22;2922;53.482;10.006;2022-09-09T00:28:19;14.90;99.90
5792;DHT22;2922;53.482;10.006;2022-09-09T00:30:46;14.90;99.90
5792;DHT22;2922;53.482;10.006;2022-09-09T00:33:16;14.90;99.90
5792;DHT22;2922;53.482;10.006;2022-09-09T00:36:13;14.90;99.90
5792;DHT22;2922;53.482;10.006;2022-09-09T00:38:45;14.90;99.90
5792;DHT22;2922;53.482;10.006;2022-09-09T00:41:22;14.90;99.90
5792;DHT22;2922;53.482;10.006;2022-09-09T00:44:33;14.90;99.90
5792;DHT22;2922;53.482;10.006;2022-09-09T00:57:38;14.80;99.90
5792;DHT22;2922;53.482;10.006;2022-09-09T01:00:26;14.80;99.90
5792;DHT22;2922;53.482;10.006;2022-09-09T01:11:33;14.80;99.90
5792;DHT22;2922;53.482;10.006;2022-09-09T01:14:29;14.70;99.90
5792;DHT22;2922;53.482;10.006;2022-09-09T01:16:58;14.70;99.90
5792;DHT22;2922;53.482;10.006;2022-09-09T01:19:43;14.70;99.90
5792;DHT22;2922;53.482;10.006;2022-09-09T01:27:51;14.70;99.90
5792;DHT22;2922;53.482;10.006;2022-09-09T01:30:19;14.70;99.90
5792;DHT22;2922;53.482;10.006;2022-09-09T01:32:48;14.70;99.90
5792;DHT22;2922;53.482;10.006;2022-09-09T01:38:05;14.60;99.90
5792;DHT22;2922;53.482;10.006;2022-09-09T01:40:31;14.70;99.90
5792;DHT22;2922;53.482;10.006;2022-09-09T01:42:57;14.60;99.90
5792;DHT22;2922;53.482;10.006;2022-09-09T01:45:24;14.60;99.90
5792;DHT22;2922;53.482;10.006;2022-09-09T01:47:51;14.50;99.90
5792;DHT22;2922;53.482;10.006;2022-09-09T01:50:17;14.60;99.90
5792;DHT22;2922;53.482;10.006;2022-09-09T01:52:45;14.50;99.90
5792;DHT22;2922;53.482;10.006;2022-09-09T01:55:14;14.50;99.90
5792;DHT22;2922;53.482;10.006;2022-09-09T01:58:16;14.50;99.90
5792;DHT22;2922;53.482;10.006;2022-09-09T02:01:15;14.50;99.90
5792;DHT22;2922;53.482;10.006;2022-09-09T02:03:47;14.50;99.90
5792;DHT22;2922;53.482;10.006;2022-09-09T02:06:22;14.40;99.90
5792;DHT22;2922;53.482;10.006;2022-09-09T02:08:53;14.40;99.90
5792;DHT22;2922;53.482;10.006;2022-09-09T02:11:23;14.40;99.90
5792;DHT22;2922;53.482;10.006;2022-09-09T02:13:54;14.40;99.90
5792;DHT22;2922;53.482;10.006;2022-09-09T02:16:28;14.40;99.90
5792;DHT22;2922;53.482;10.006;2022-09-09T02:19:13;14.30;99.90
5792;DHT22;2922;53.482;10.006;2022-09-09T02:21:42;14.30;99.90
5792;DHT22;2922;53.482;10.006;2022-09-09T02:24:09;14.20;99.90
5792;DHT22;2922;53.482;10.006;2022-09-09T05:20:05;13.50;99.90
5792;DHT22;2922;53.482;10.006;2022-09-09T05:22:31;13.50;99.90
5792;DHT22;2922;53.482;10.006;2022-09-09T05:24:57;13.50;99.90
5792;DHT22;2922;53.482;10.006;2022-09-09T05:27:23;13.50;99.90
5792;DHT22;2922;53.482;10.006;2022-09-09T05:29:49;13.60;99.90
5792;DHT22;2922;53.482;10.006;2022-09-09T05:32:14;13.60;99.90
5792;DHT22;2922;53.482;10.006;2022-09-09T05:34:43;13.60;99.90
5792;DHT22;2922;53.482;10.006;2022-09-09T05:37:08;13.60;99.90
5792;DHT22;2922;53.482;10.006;2022-09-09T05:39:34;13.70;99.90
5792;DHT22;2922;53.482;10.006;2022-09-09T05:42:02;13.70;99.90
5792;DHT22;2922;53.482;10.006;2022-09-09T05:44:29;13.80;99.90
5792;DHT22;2922;53.482;10.006;2022-09-09T05:46:54;13.80;99.90
5792;DHT22;2922;53.482;10.006;2022-09-09T05:49:20;13.90;99.90
5792;DHT22;2922;53.482;10.006;2022-09-09T05:51:46;14.00;99.90
5792;DHT22;2922;53.482;10.006;2022-09-09T05:54:13;13.90;99.90
5792;DHT22;2922;53.482;10.006;2022-09-09T05:56:41;14.00;99.90
5792;DHT22;2922;53.482;10.006;2022-09-09T05:59:07;14.10;99.90
5792;DHT22;2922;53.482;10.006;2022-09-09T06:01:35;14.00;99.90
5792;DHT22;2922;53.482;10.006;2022-09-09T06:04:01;14.10;99.90
5792;DHT22;2922;53.482;10.006;2022-09-09T06:06:31;14.20;99.90
5792;DHT22;2922;53.482;10.006;2022-09-09T06:08:57;14.20;99.90
5792;DHT22;2922;53.482;10.006;2022-09-09T06:11:25;14.20;99.90
5792;DHT22;2922;53.482;10.006;2022-09-09T06:13:52;14.20;99.90
5792;DHT22;2922;53.482;10.006;2022-09-09T06:16:22;14.20;99.90
5792;DHT22;2922;53.482;10.006;2022-09-09T06:18:52;14.20;99.90
5792;DHT22;2922;53.482;10.006;2022-09-09T06:21:26;14.20;99.90
5792;DHT22;2922;53.482;10.006;2022-09-09T06:23:52;14.20;99.90
5792;DHT22;2922;53.482;10.006;2022-09-09T06:26:22;14.20;99.90
5792;DHT22;2922;53.482;10.006;2022-09-09T06:28:49;14.30;99.90
5792;DHT22;2922;53.482;10.006;2022-09-09T06:31:20;14.30;99.90
5792;DHT22;2922;53.482;10.006;2022-09-09T06:33:52;14.30;99.90
5792;DHT22;2922;53.482;10.006;2022-09-09T06:36:23;14.40;99.90
5792;DHT22;2922;53.482;10.006;2022-09-09T06:38:49;14.50;99.90
5792;DHT22;2922;53.482;10.006;2022-09-09T06:41:18;14.40;99.90
5792;DHT22;2922;53.482;10.006;2022-09-09T06:43:44;14.40;99.90
5792;DHT22;2922;53.482;10.006;2022-09-09T06:46:12;14.60;99.90
5792;DHT22;2922;53.482;10.006;2022-09-09T06:48:42;14.60;99.90
5792;DHT22;2922;53.482;10.006;2022-09-09T06:51:10;14.70;99.90
5792;DHT22;2922;53.482;10.006;2022-09-09T06:53:38;14.70;99.90
5792;DHT22;2922;53.482;10.006;2022-09-09T06:58:36;14.80;99.90
5792;DHT22;2922;53.482;10.006;2022-09-09T07:01:06;14.90;99.90
5792;DHT22;2922;53.482;10.006;2022-09-09T07:03:32;14.90;99.90
5792;DHT22;2922;53.482;10.006;2022-09-09T07:06:00;15.00;99.90
5792;DHT22;2922;53.482;10.006;2022-09-09T07:08:26;15.00;99.90
5792;DHT22;2922;53.482;10.006;2022-09-09T07:10:52;15.00;99.90
5792;DHT22;2922;53.482;10.006;2022-09-09T07:13:26;15.10;99.90
5792;DHT22;2922;53.482;10.006;2022-09-09T07:15:52;15.10;99.90
5792;DHT22;2922;53.482;10.006;2022-09-09T07:18:19;15.10;99.90
5792;DHT22;2922;53.482;10.006;2022-09-09T07:20:55;15.20;99.90
5792;DHT22;2922;53.482;10.006;2022-09-09T07:23:24;15.30;99.90
5792;DHT22;2922;53.482;10.006;2022-09-09T07:25:50;15.30;99.90
5792;DHT22;2922;53.482;10.006;2022-09-09T07:28:17;15.40;99.90
5792;DHT22;2922;53.482;10.006;2022-09-09T07:30:43;15.50;99.90
5792;DHT22;2922;53.482;10.006;2022-09-09T07:33:09;15.50;99.90
5792;DHT22;2922;53.482;10.006;2022-09-09T07:35:37;15.60;99.90
5792;DHT22;2922;53.482;10.006;2022-09-09T07:38:03;15.80;99.90
5792;DHT22;2922;53.482;10.006;2022-09-09T07:40:33;15.90;99.90
5792;DHT22;2922;53.482;10.006;2022-09-09T07:42:59;15.90;99.90
5792;DHT22;2922;53.482;10.006;2022-09-09T07:45:26;15.90;99.90
5792;DHT22;2922;53.482;10.006;2022-09-09T07:47:54;16.00;99.90
5792;DHT22;2922;53.482;10.006;2022-09-09T07:50:22;16.00;99.90
5792;DHT22;2922;53.482;10.006;2022-09-09T07:52:49;16.10;99.90
5792;DHT22;2922;53.482;10.006;2022-09-09T07:55:14;16.20;99.90
5792;DHT22;2922;53.482;10.006;2022-09-09T07:57:40;16.20;99.90
5792;DHT22;2922;53.482;10.006;2022-09-09T08:00:06;16.30;99.90
5792;DHT22;2922;53.482;10.006;2022-09-09T08:02:32;16.30;99.90
5792;DHT22;2922;53.482;10.006;2022-09-09T08:04:58;16.50;99.90
5792;DHT22;2922;53.482;10.006;2022-09-09T08:07:23;16.40;99.90
5792;DHT22;2922;53.482;10.006;2022-09-09T08:09:49;16.50;99.90
5792;DHT22;2922;53.482;10.006;2022-09-09T08:12:16;16.70;99.90
5792;DHT22;2922;53.482;10.006;2022-09-09T08:14:42;16.90;99.90
5792;DHT22;2922;53.482;10.006;2022-09-09T08:17:07;17.10;99.90
5792;DHT22;2922;53.482;10.006;2022-09-09T08:19:33;17.20;99.90
5792;DHT22;2922;53.482;10.006;2022-09-09T08:22:01;17.20;99.90
5792;DHT22;2922;53.482;10.006;2022-09-09T08:24:28;17.40;99.90
5792;DHT22;2922;53.482;10.006;2022-09-09T08:26:54;17.40;99.90
5792;DHT22;2922;53.482;10.006;2022-09-09T08:29:20;17.30;99.90
5792;DHT22;2922;53.482;10.006;2022-09-09T08:31:48;17.40;99.90
5792;DHT22;2922;53.482;10.006;2022-09-09T08:34:14;17.40;99.90
5792;DHT22;2922;53.482;10.006;2022-09-09T08:36:43;17.30;99.90
5792;DHT22;2922;53.482;10.006;2022-09-09T08:39:10;17.40;99.90
5792;DHT22;2922;53.482;10.006;2022-09-09T08:42:01;17.50;99.90
5792;DHT22;2922;53.482;10.006;2022-09-09T08:54:48;18.20;99.90
5792;DHT22;2922;53.482;10.006;2022-09-09T08:57:23;18.40;99.90
5792;DHT22;2922;53.482;10.006;2022-09-09T08:59:55;18.50;99.90
5792;DHT22;2922;53.482;10.006;2022-09-09T09:02:46;18.60;99.90
5792;DHT22;2922;53.482;10.006;2022-09-09T09:05:40;18.60;99.90
5792;DHT22;2922;53.482;10.006;2022-09-09T09:08:22;18.70;99.90
5792;DHT22;2922;53.482;10.006;2022-09-09T09:10:53;18.90;99.90
5792;DHT22;2922;53.482;10.006;2022-09-09T09:16:38;18.90;99.90
5792;DHT22;2922;53.482;10.006;2022-09-09T09:19:14;19.00;99.90
5792;DHT22;2922;53.482;10.006;2022-09-09T09:21:45;19.20;99.90
5792;DHT22;2922;53.482;10.006;2022-09-09T09:24:16;19.30;99.90
5792;DHT22;2922;53.482;10.006;2022-09-09T09:26:43;19.20;99.90
5792;DHT22;2922;53.482;10.006;2022-09-09T09:29:15;19.30;99.90
5792;DHT22;2922;53.482;10.006;2022-09-09T09:31:48;19.40;99.90
5792;DHT22;2922;53.482;10.006;2022-09-09T09:34:16;19.50;99.90
5792;DHT22;2922;53.482;10.006;2022-09-09T09:37:15;19.40;99.90
5792;DHT22;2922;53.482;10.006;2022-09-09T09:39:45;19.50;99.90
5792;DHT22;2922;53.482;10.006;2022-09-09T09:42:17;19.50;99.90
5792;DHT22;2922;53.482;10.006;2022-09-09T09:44:43;19.70;99.90
5792;DHT22;2922;53.482;10.006;2022-09-09T09:47:22;19.70;99.90
5792;DHT22;2922;53.482;10.006;2022-09-09T09:49:59;19.90;99.90
5792;DHT22;2922;53.482;10.006;2022-09-09T09:52:35;20.30;99.90
5792;DHT22;2922;53.482;10.006;2022-09-09T09:55:04;20.50;99.90
5792;DHT22;2922;53.482;10.006;2022-09-09T09:57:33;20.90;99.90
5792;DHT22;2922;53.482;10.006;2022-09-09T10:00:04;21.00;99.90
5792;DHT22;2922;53.482;10.006;2022-09-09T10:02:38;21.20;99.90
5792;DHT22;2922;53.482;10.006;2022-09-09T10:05:12;21.50;99.90
5792;DHT22;2922;53.482;10.006;2022-09-09T10:07:38;21.60;99.90
5792;DHT22;2922;53.482;10.006;2022-09-09T10:10:05;21.70;99.90
5792;DHT22;2922;53.482;10.006;2022-09-09T10:15:42;22.20;99.90
5792;DHT22;2922;53.482;10.006;2022-09-09T10:18:31;22.60;99.90
5792;DHT22;2922;53.482;10.006;2022-09-09T10:32:37;22.20;99.90
5792;DHT22;2922;53.482;10.006;2022-09-09T10:38:19;22.50;99.90
5792;DHT22;2922;53.482;10.006;2022-09-09T10:48:47;22.90;99.90
5792;DHT22;2922;53.482;10.006;2022-09-09T10:51:24;22.90;99.90
5792;DHT22;2922;53.482;10.006;2022-09-09T10:56:59;22.70;99.90
5792;DHT22;2922;53.482;10.006;2022-09-09T10:59:31;22.90;99.90
5792;DHT22;2922;53.482;10.006;2022-09-09T11:02:12;23.20;99.90
5792;DHT22;2922;53.482;10.006;2022-09-09T11:04:45;23.40;99.90
5792;DHT22;2922;53.482;10.006;2022-09-09T11:07:27;23.70;99.90
5792;DHT22;2922;53.482;10.006;2022-09-09T11:10:21;23.90;99.90
5792;DHT22;2922;53.482;10.006;2022-09-09T11:12:51;23.80;99.90
5792;DHT22;2922;53.482;10.006;2022-09-09T11:15:23;23.70;99.90
5792;DHT22;2922;53.482;10.006;2022-09-09T11:17:56;23.70;99.90
5792;DHT22;2922;53.482;10.006;2022-09-09T11:20:25;23.60;99.90
5792;DHT22;2922;53.482;10.006;2022-09-09T11:23:13;23.70;99.90
5792;DHT22;2922;53.482;10.006;2022-09-09T11:25:54;23.70;99.90
5792;DHT22;2922;53.482;10.006;2022-09-09T11:33:58;23.50;99.90
5792;DHT22;2922;53.482;10.006;2022-09-09T11:36:55;23.20;99.90
5792;DHT22;2922;53.482;10.006;2022-09-09T11:42:20;23.00;99.90
5792;DHT22;2922;53.482;10.006;2022-09-09T11:44:46;23.10;99.90
5792;DHT22;2922;53.482;10.006;2022-09-09T11:52:44;24.60;99.90
5792;DHT22;2922;53.482;10.006;2022-09-09T11:55:35;24.40;99.90
5792;DHT22;2922;53.482;10.006;2022-09-09T11:58:02;23.80;99.90
5792;DHT22;2922;53.482;10.006;2022-09-09T12:00:36;23.60;99.90
5792;DHT22;2922;53.482;10.006;2022-09-09T12:03:03;23.30;99.90
5792;DHT22;2922;53.482;10.006;2022-09-09T12:05:41;23.10;99.90
5792;DHT22;2922;53.482;10.006;2022-09-09T12:08:09;23.10;99.90
5792;DHT22;2922;53.482;10.006;2022-09-09T12:10:39;23.10;99.90
5792;DHT22;2922;53.482;10.006;2022-09-09T12:15:49;23.10;99.90
5792;DHT22;2922;53.482;10.006;2022-09-09T12:18:22;23.10;99.90
5792;DHT22;2922;53.482;10.006;2022-09-09T12:23:47;22.90;99.90
5792;DHT22;2922;53.482;10.006;2022-09-09T12:29:04;23.10;99.90
5792;DHT22;2922;53.482;10.006;2022-09-09T12:31:38;22.90;99.90
5792;DHT22;2922;53.482;10.006;2022-09-09T12:34:46;22.80;99.90
5792;DHT22;2922;53.482;10.006;2022-09-09T12:39:56;22.60;99.90
5792;DHT22;2922;53.482;10.006;2022-09-09T12:42:23;22.50;99.90
5792;DHT22;2922;53.482;10.006;2022-09-09T12:44:54;22.50;99.90
5792;DHT22;2922;53.482;10.006;2022-09-09T12:47:22;22.30;99.90
5792;DHT22;2922;53.482;10.006;2022-09-09T12:49:50;22.00;99.90
5792;DHT22;2922;53.482;10.006;2022-09-09T12:52:26;21.80;99.90
5792;DHT22;2922;53.482;10.006;2022-09-09T12:54:52;21.60;99.90
5792;DHT22;2922;53.482;10.006;2022-09-09T12:57:20;21.50;99.90
5792;DHT22;2922;53.482;10.006;2022-09-09T12:59:47;21.40;99.90
5792;DHT22;2922;53.482;10.006;2022-09-09T13:02:21;21.30;99.90
5792;DHT22;2922;53.482;10.006;2022-09-09T13:04:47;21.00;99.90
5792;DHT22;2922;53.482;10.006;2022-09-09T13:07:16;20.90;99.90
5792;DHT22;2922;53.482;10.006;2022-09-09T13:09:42;20.80;99.90
5792;DHT22;2922;53.482;10.006;2022-09-09T13:12:21;20.70;99.90
5792;DHT22;2922;53.482;10.006;2022-09-09T13:14:50;20.50;99.90
5792;DHT22;2922;53.482;10.006;2022-09-09T13:17:21;20.20;99.90
5792;DHT22;2922;53.482;10.006;2022-09-09T13:19:48;20.10;99.90
5792;DHT22;2922;53.482;10.006;2022-09-09T13:22:36;19.90;99.90
5792;DHT22;2922;53.482;10.006;2022-09-09T13:25:24;19.80;99.90
5792;DHT22;2922;53.482;10.006;2022-09-09T13:33:04;19.50;99.90
5792;DHT22;2922;53.482;10.006;2022-09-09T13:35:31;19.30;99.90
5792;DHT22;2922;53.482;10.006;2022-09-09T13:37:58;19.30;99.90
5792;DHT22;2922;53.482;10.006;2022-09-09T13:40:25;19.30;99.90
5792;DHT22;2922;53.482;10.006;2022-09-09T13:42:57;19.20;99.90
5792;DHT22;2922;53.482;10.006;2022-09-09T13:45:25;19.20;99.90
5792;DHT22;2922;53.482;10.006;2022-09-09T13:47:55;19.20;99.90
5792;DHT22;2922;53.482;10.006;2022-09-09T13:50:29;19.20;99.90
5792;DHT22;2922;53.482;10.006;2022-09-09T13:52:56;19.10;99.90
5792;DHT22;2922;53.482;10.006;2022-09-09T13:55:29;19.10;99.90
5792;DHT22;2922;53.482;10.006;2022-09-09T13:57:57;19.10;99.90
5792;DHT22;2922;53.482;10.006;2022-09-09T14:00:23;19.10;99.90
5792;DHT22;2922;53.482;10.006;2022-09-09T14:02:50;19.10;99.90
5792;DHT22;2922;53.482;10.006;2022-09-09T14:05:16;19.00;99.90
5792;DHT22;2922;53.482;10.006;2022-09-09T14:07:43;19.00;99.90
5792;DHT22;2922;53.482;10.006;2022-09-09T14:10:10;18.90;99.90
5792;DHT22;2922;53.482;10.006;2022-09-09T14:12:36;18.90;99.90
5792;DHT22;2922;53.482;10.006;2022-09-09T14:15:05;18.90;99.90
5792;DHT22;2922;53.482;10.006;2022-09-09T14:17:31;18.80;99.90
5792;DHT22;2922;53.482;10.006;2022-09-09T14:19:57;18.70;99.90
5792;DHT22;2922;53.482;10.006;2022-09-09T14:22:24;18.50;99.90
5792;DHT22;2922;53.482;10.006;2022-09-09T14:24:50;18.40;99.90
5792;DHT22;2922;53.482;10.006;2022-09-09T14:27:16;18.30;99.90
5792;DHT22;2922;53.482;10.006;2022-09-09T14:29:43;18.30;99.90
5792;DHT22;2922;53.482;10.006;2022-09-09T14:32:09;18.20;99.90
5792;DHT22;2922;53.482;10.006;2022-09-09T14:34:35;18.10;99.90
5792;DHT22;2922;53.482;10.006;2022-09-09T14:37:00;18.00;99.90
5792;DHT22;2922;53.482;10.006;2022-09-09T14:39:26;17.80;99.90
5792;DHT22;2922;53.482;10.006;2022-09-09T14:41:52;17.80;99.90
5792;DHT22;2922;53.482;10.006;2022-09-09T14:44:17;17.80;99.90
5792;DHT22;2922;53.482;10.006;2022-09-09T14:46:44;17.70;99.90
5792;DHT22;2922;53.482;10.006;2022-09-09T14:49:09;17.70;99.90
5792;DHT22;2922;53.482;10.006;2022-09-09T14:51:38;17.70;99.90
5792;DHT22;2922;53.482;10.006;2022-09-09T14:54:04;17.70;99.90
5792;DHT22;2922;53.482;10.006;2022-09-09T14:56:32;17.60;99.90
5792;DHT22;2922;53.482;10.006;2022-09-09T14:59:01;17.60;99.90
5792;DHT22;2922;53.482;10.006;2022-09-09T15:01:28;17.60;99.90
5792;DHT22;2922;53.482;10.006;2022-09-09T15:03:59;17.60;99.90
5792;DHT22;2922;53.482;10.006;2022-09-09T15:06:27;17.60;99.90
5792;DHT22;2922;53.482;10.006;2022-09-09T15:08:54;17.60;99.90
5792;DHT22;2922;53.482;10.006;2022-09-09T15:11:23;17.70;99.90
5792;DHT22;2922;53.482;10.006;2022-09-09T15:13:51;17.70;99.90
5792;DHT22;2922;53.482;10.006;2022-09-09T15:16:21;17.70;99.90
5792;DHT22;2922;53.482;10.006;2022-09-09T15:18:51;17.70;99.90
5792;DHT22;2922;53.482;10.006;2022-09-09T15:21:19;17.70;99.90
5792;DHT22;2922;53.482;10.006;2022-09-09T15:23:45;17.80;99.90
5792;DHT22;2922;53.482;10.006;2022-09-09T15:26:12;17.70;99.90
5792;DHT22;2922;53.482;10.006;2022-09-09T15:28:39;17.80;99.90
5792;DHT22;2922;53.482;10.006;2022-09-09T15:31:09;17.80;99.90
5792;DHT22;2922;53.482;10.006;2022-09-09T15:33:36;17.90;99.90
5792;DHT22;2922;53.482;10.006;2022-09-09T15:36:25;17.90;99.90
5792;DHT22;2922;53.482;10.006;2022-09-09T15:38:51;18.00;99.90
5792;DHT22;2922;53.482;10.006;2022-09-09T15:41:18;17.90;99.90
5792;DHT22;2922;53.482;10.006;2022-09-09T15:43:46;18.00;99.90
5792;DHT22;2922;53.482;10.006;2022-09-09T15:46:28;18.00;99.90
5792;DHT22;2922;53.482;10.006;2022-09-09T15:49:08;18.00;99.90
5792;DHT22;2922;53.482;10.006;2022-09-09T15:51:35;18.10;99.90
5792;DHT22;2922;53.482;10.006;2022-09-09T15:54:02;18.10;99.90
5792;DHT22;2922;53.482;10.006;2022-09-09T15:56:29;18.00;99.90
5792;DHT22;2922;53.482;10.006;2022-09-09T15:58:59;18.00;99.90
5792;DHT22;2922;53.482;10.006;2022-09-09T16:01:26;18.10;99.90
5792;DHT22;2922;53.482;10.006;2022-09-09T16:03:52;18.10;99.90
5792;DHT22;2922;53.482;10.006;2022-09-09T16:06:20;18.10;99.90
5792;DHT22;2922;53.482;10.006;2022-09-09T16:08:49;18.20;99.90
5792;DHT22;2922;53.482;10.006;2022-09-09T16:11:25;18.30;99.90
5792;DHT22;2922;53.482;10.006;2022-09-09T16:13:52;18.30;99.90
5792;DHT22;2922;53.482;10.006;2022-09-09T16:16:20;18.30;99.90
5792;DHT22;2922;53.482;10.006;2022-09-09T16:18:49;18.30;99.90
5792;DHT22;2922;53.482;10.006;2022-09-09T16:23:52;18.30;99.90
5792;DHT22;2922;53.482;10.006;2022-09-09T16:26:22;18.40;99.90
5792;DHT22;2922;53.482;10.006;2022-09-09T16:28:48;18.30;99.90
5792;DHT22;2922;53.482;10.006;2022-09-09T16:31:17;18.20;99.90
5792;DHT22;2922;53.482;10.006;2022-09-09T16:33:43;18.20;99.90
5792;DHT22;2922;53.482;10.006;2022-09-09T16:36:17;18.30;99.90
5792;DHT22;2922;53.482;10.006;2022-09-09T16:38:43;18.30;99.90
5792;DHT22;2922;53.482;10.006;2022-09-09T16:41:10;18.40;99.90
5792;DHT22;2922;53.482;10.006;2022-09-09T16:43:37;18.40;99.90
5792;DHT22;2922;53.482;10.006;2022-09-09T16:46:13;18.40;99.90
5792;DHT22;2922;53.482;10.006;2022-09-09T16:48:41;18.30;99.90
5792;DHT22;2922;53.482;10.006;2022-09-09T16:51:11;18.10;99.90
5792;DHT22;2922;53.482;10.006;2022-09-09T16:53:37;18.10;99.90
5792;DHT22;2922;53.482;10.006;2022-09-09T16:56:11;18.10;99.90
5792;DHT22;2922;53.482;10.006;2022-09-09T16:58:37;18.10;99.90
5792;DHT22;2922;53.482;10.006;2022-09-09T17:01:03;18.10;99.90
5792;DHT22;2922;53.482;10.006;2022-09-09T17:03:29;18.10;99.90
5792;DHT22;2922;53.482;10.006;2022-09-09T17:05:55;18.00;99.90
5792;DHT22;2922;53.482;10.006;2022-09-09T17:08:23;18.00;99.90
5792;DHT22;2922;53.482;10.006;2022-09-09T17:10:49;18.00;99.90
5792;DHT22;2922;53.482;10.006;2022-09-09T17:13:15;18.00;99.90
5792;DHT22;2922;53.482;10.006;2022-09-09T17:15:42;18.00;99.90
5792;DHT22;2922;53.482;10.006;2022-09-09T17:18:11;17.90;99.90
5792;DHT22;2922;53.482;10.006;2022-09-09T17:20:38;17.90;99.90
5792;DHT22;2922;53.482;10.006;2022-09-09T17:23:08;17.80;99.90
5792;DHT22;2922;53.482;10.006;2022-09-09T17:25:35;17.80;99.90
5792;DHT22;2922;53.482;10.006;2022-09-09T17:28:01;17.70;99.90
5792;DHT22;2922;53.482;10.006;2022-09-09T17:30:38;17.70;99.90
